Time;durP1;ratioP1;P1;durP2;ratioP2;P2;SDS_P1;SDS_P2;PMS_P1;PMS_P2;Temp;Humidity;BMP_temperature;BMP_pressure;BME280_temperature;BME280_humidity;BME280_pressure;Samples;Min_cycle;Max_cycle;Signal;HPM_P1;HPM_P2
2023/10/18 00:00:57;;;;;;;4.38;3.17;;;6.20;99.90;;;;;;5025314;28;20366;-78
2023/10/18 00:03:36;;;;;;;4.10;2.95;;;6.20;99.90;;;;;;5042081;28;20468;-78
2023/10/18 00:06:11;;;;;;;4.13;2.95;;;6.20;99.90;;;;;;5042941;28;20037;-78
2023/10/18 00:08:40;;;;;;;4.38;3.20;;;6.20;99.90;;;;;;5030378;28;20144;-78
2023/10/18 00:11:06;;;;;;;5.90;3.33;;;6.20;99.90;;;;;;5018934;28;20033;-79
2023/10/18 00:13:33;;;;;;;4.97;3.40;;;6.20;99.90;;;;;;5042600;28;20430;-78
2023/10/18 00:16:06;;;;;;;4.50;2.97;;;6.10;99.90;;;;;;5021579;28;20080;-78
2023/10/18 00:18:35;;;;;;;5.45;3.65;;;6.00;99.90;;;;;;5043268;28;20091;-79
2023/10/18 00:21:04;;;;;;;3.88;2.83;;;6.00;99.90;;;;;;5021640;28;20041;-78
2023/10/18 00:23:33;;;;;;;3.58;3.00;;;5.90;99.90;;;;;;5021982;28;20056;-78
2023/10/18 00:26:09;;;;;;;3.88;2.80;;;5.90;99.90;;;;;;5032422;28;20056;-78
2023/10/18 00:28:39;;;;;;;4.05;2.90;;;5.80;99.90;;;;;;5030847;28;20127;-78
2023/10/18 00:31:17;;;;;;;6.07;3.47;;;5.80;99.90;;;;;;5022657;28;20048;-79
2023/10/18 00:33:44;;;;;;;4.68;3.13;;;5.80;99.90;;;;;;5033810;28;20096;-78
2023/10/18 00:36:11;;;;;;;5.03;3.17;;;5.70;99.90;;;;;;5025351;28;20094;-79
2023/10/18 00:38:40;;;;;;;9.05;4.05;;;5.80;99.90;;;;;;5043188;28;20454;-78
2023/10/18 00:41:10;;;;;;;6.30;4.43;;;5.80;99.90;;;;;;5026726;28;20053;-78
2023/10/18 00:43:36;;;;;;;5.35;3.78;;;5.80;99.90;;;;;;5012173;28;20056;-78
2023/10/18 00:46:06;;;;;;;7.90;4.40;;;5.80;99.90;;;;;;5029508;28;20167;-78
2023/10/18 00:48:33;;;;;;;6.05;4.25;;;5.80;99.90;;;;;;5059818;28;20127;-78
2023/10/18 00:50:59;;;;;;;4.63;3.63;;;5.80;99.90;;;;;;5054830;28;20037;-78
2023/10/18 00:53:26;;;;;;;5.80;4.20;;;5.80;99.90;;;;;;5054637;28;20033;-78
2023/10/18 00:56:00;;;;;;;6.70;4.45;;;5.80;99.90;;;;;;5057233;28;20093;-79
2023/10/18 00:58:31;;;;;;;5.65;4.00;;;5.80;99.90;;;;;;5041860;28;20763;-78
2023/10/18 01:00:59;;;;;;;6.47;4.40;;;5.80;99.90;;;;;;5041700;28;20056;-79
2023/10/18 01:03:42;;;;;;;6.75;4.75;;;5.80;99.90;;;;;;5055965;28;20037;-78
2023/10/18 01:06:26;;;;;;;8.73;5.35;;;5.80;99.90;;;;;;5048711;28;20060;-78
2023/10/18 01:08:52;;;;;;;7.53;4.72;;;5.80;99.90;;;;;;5061598;28;20041;-79
2023/10/18 01:11:22;;;;;;;7.40;5.20;;;5.80;99.90;;;;;;5056864;28;20033;-79
2023/10/18 01:13:48;;;;;;;7.28;5.00;;;5.80;99.90;;;;;;5033917;28;20056;-78
2023/10/18 01:16:28;;;;;;;6.43;4.65;;;5.80;99.90;;;;;;5040695;28;20029;-78
2023/10/18 01:18:55;;;;;;;5.85;4.40;;;5.70;99.90;;;;;;5051666;28;20041;-78
2023/10/18 01:21:22;;;;;;;6.38;4.43;;;5.70;99.90;;;;;;5040434;28;20044;-78
2023/10/18 01:23:59;;;;;;;6.70;4.75;;;5.70;99.90;;;;;;5057450;28;20074;-79
2023/10/18 01:26:31;;;;;;;7.05;5.22;;;5.70;99.90;;;;;;5055537;28;20036;-79
2023/10/18 01:29:00;;;;;;;8.15;5.88;;;5.70;99.90;;;;;;5058988;28;20832;-79
2023/10/18 01:31:26;;;;;;;10.27;5.25;;;5.60;99.90;;;;;;5058643;28;20041;-79
2023/10/18 01:33:53;;;;;;;7.72;5.25;;;5.70;99.90;;;;;;5028594;28;20043;-79
2023/10/18 01:36:21;;;;;;;7.63;5.32;;;5.70;99.90;;;;;;5056688;28;20132;-79
2023/10/18 01:38:52;;;;;;;6.55;4.93;;;5.60;99.90;;;;;;5055965;28;20400;-79
2023/10/18 01:41:37;;;;;;;8.73;5.63;;;5.70;99.90;;;;;;5035509;28;20032;-79
2023/10/18 01:44:11;;;;;;;8.48;5.82;;;5.70;99.90;;;;;;5033579;28;20076;-79
2023/10/18 01:46:45;;;;;;;8.80;6.20;;;5.70;99.90;;;;;;5047102;28;20113;-79
2023/10/18 01:49:16;;;;;;;7.55;5.45;;;5.60;99.90;;;;;;5048043;28;20430;-79
2023/10/18 01:51:44;;;;;;;6.72;4.70;;;5.60;99.90;;;;;;5026773;28;20481;-82
2023/10/18 01:54:12;;;;;;;6.45;4.85;;;5.60;99.90;;;;;;5053150;28;20098;-82
2023/10/18 01:56:42;;;;;;;8.98;5.15;;;5.50;99.90;;;;;;5040502;28;20033;-83
2023/10/18 01:59:14;;;;;;;8.27;4.75;;;5.50;99.90;;;;;;5056321;28;20480;-82
2023/10/18 02:01:40;;;;;;;6.60;4.93;;;5.50;99.90;;;;;;5038645;28;20055;-82
2023/10/18 02:04:11;;;;;;;7.68;5.05;;;5.40;99.90;;;;;;5057044;28;20044;-82
2023/10/18 02:06:37;;;;;;;7.47;5.40;;;5.40;99.90;;;;;;5052710;28;20045;-82
2023/10/18 02:09:10;;;;;;;9.35;6.15;;;5.40;99.90;;;;;;5054121;28;20345;-82
2023/10/18 02:11:36;;;;;;;7.57;5.18;;;5.40;99.90;;;;;;5041571;28;20040;-82
2023/10/18 02:14:02;;;;;;;8.88;6.45;;;5.40;99.90;;;;;;5038455;28;20055;-82
2023/10/18 02:16:28;;;;;;;9.38;6.13;;;5.40;99.90;;;;;;5054263;28;20037;-82
2023/10/18 02:18:54;;;;;;;8.65;6.57;;;5.40;99.90;;;;;;5031839;28;20055;-82
2023/10/18 02:21:23;;;;;;;8.63;6.38;;;5.50;99.90;;;;;;5027066;28;20140;-82
2023/10/18 02:23:51;;;;;;;10.38;6.60;;;5.40;99.90;;;;;;5055012;28;20041;-82
2023/10/18 02:26:40;;;;;;;9.10;6.50;;;5.40;99.90;;;;;;5052885;28;20045;-82
2023/10/18 02:29:11;;;;;;;8.82;6.07;;;5.40;99.90;;;;;;5056760;28;20043;-79
2023/10/18 02:31:42;;;;;;;9.27;6.43;;;5.40;99.90;;;;;;5042321;28;20061;-79
2023/10/18 02:34:09;;;;;;;8.45;5.85;;;5.40;99.90;;;;;;5043274;28;20056;-79
2023/10/18 02:36:40;;;;;;;8.07;5.68;;;5.50;99.90;;;;;;5039161;28;20045;-79
2023/10/18 02:39:10;;;;;;;10.25;7.20;;;5.40;99.90;;;;;;5038055;28;20053;-79
2023/10/18 02:41:41;;;;;;;8.20;6.38;;;5.40;99.90;;;;;;5035058;28;20045;-79
2023/10/18 02:44:15;;;;;;;9.13;6.63;;;5.40;99.90;;;;;;5057408;28;20064;-79
2023/10/18 02:46:42;;;;;;;10.18;7.10;;;5.40;99.90;;;;;;5023041;28;20049;-79
2023/10/18 02:49:11;;;;;;;8.80;6.88;;;5.40;99.90;;;;;;5040062;28;20045;-79
2023/10/18 02:51:37;;;;;;;11.02;6.57;;;5.50;99.90;;;;;;5030793;28;20057;-79
2023/10/18 02:56:41;;;;;;;8.75;6.57;;;5.50;99.90;;;;;;5039005;28;20095;-79
2023/10/18 02:59:07;;;;;;;11.57;7.47;;;5.50;99.90;;;;;;5020043;28;20045;-79
2023/10/18 03:01:43;;;;;;;9.63;6.65;;;5.50;99.90;;;;;;5004386;28;20043;-79
2023/10/18 03:04:12;;;;;;;10.90;7.40;;;5.50;99.90;;;;;;5022785;28;20041;-79
2023/10/18 03:06:38;;;;;;;9.15;6.65;;;5.50;99.90;;;;;;5034333;28;20052;-79
2023/10/18 03:09:18;;;;;;;9.27;6.30;;;5.50;99.90;;;;;;5023798;28;20364;-79
2023/10/18 03:11:44;;;;;;;9.05;6.10;;;5.50;99.90;;;;;;5027532;28;20116;-78
2023/10/18 03:14:12;;;;;;;9.65;6.80;;;5.60;99.90;;;;;;5043813;28;20033;-79
2023/10/18 03:19:12;;;;;;;10.52;6.70;;;5.60;99.90;;;;;;5029914;28;20080;-79
2023/10/18 03:21:41;;;;;;;8.65;6.13;;;5.60;99.90;;;;;;5045323;28;20391;-79
2023/10/18 03:24:07;;;;;;;8.55;6.18;;;5.60;99.90;;;;;;5023241;28;20088;-79
2023/10/18 03:26:37;;;;;;;8.48;6.30;;;5.60;99.90;;;;;;5041699;28;20048;-79
2023/10/18 03:29:05;;;;;;;8.88;5.90;;;5.60;99.90;;;;;;5025267;28;20454;-79
2023/10/18 03:31:35;;;;;;;7.93;5.82;;;5.60;99.90;;;;;;5016549;28;20030;-78
2023/10/18 03:34:02;;;;;;;7.82;5.47;;;5.60;99.90;;;;;;5016917;28;20055;-79
2023/10/18 03:36:32;;;;;;;9.45;5.80;;;5.60;99.90;;;;;;5039866;28;20045;-79
2023/10/18 03:39:15;;;;;;;7.95;6.22;;;5.60;99.90;;;;;;5028378;28;21519;-79
2023/10/18 03:41:41;;;;;;;9.43;6.80;;;5.60;99.90;;;;;;5038506;28;20049;-78
2023/10/18 03:44:13;;;;;;;8.18;6.20;;;5.60;99.90;;;;;;5041384;28;20048;-79
2023/10/18 03:46:47;;;;;;;7.25;6.00;;;5.50;99.90;;;;;;5039138;28;20127;-79
2023/10/18 03:51:57;;;;;;;8.57;6.80;;;5.50;99.90;;;;;;5046070;28;20460;-79
2023/10/18 03:54:26;;;;;;;10.32;7.20;;;5.50;99.90;;;;;;5028710;28;20068;-78
2023/10/18 03:56:53;;;;;;;7.72;6.25;;;5.50;99.90;;;;;;5028257;28;20043;-79
2023/10/18 03:59:22;;;;;;;8.23;6.50;;;5.50;99.90;;;;;;5037784;28;20033;-78
2023/10/18 04:04:44;;;;;;;8.38;6.22;;;5.50;99.90;;;;;;5055992;28;20068;-79
2023/10/18 04:07:16;;;;;;;7.93;6.07;;;5.40;99.90;;;;;;5031155;28;20045;-79
2023/10/18 04:12:27;;;;;;;9.45;6.85;;;5.40;99.90;;;;;;5052251;28;20119;-79
2023/10/18 04:14:55;;;;;;;8.65;6.85;;;5.40;99.90;;;;;;5041317;28;20045;-79
2023/10/18 04:22:46;;;;;;;9.25;6.95;;;5.40;99.90;;;;;;5054197;28;20483;-79
2023/10/18 04:25:29;;;;;;;11.88;7.93;;;5.40;99.90;;;;;;5030964;28;20083;-79
2023/10/18 04:27:59;;;;;;;10.07;7.05;;;5.40;99.90;;;;;;5041152;28;21187;-79
2023/10/18 04:30:32;;;;;;;11.27;7.43;;;5.40;99.90;;;;;;5062663;28;20037;-79
2023/10/18 04:33:07;;;;;;;9.50;7.13;;;5.40;99.90;;;;;;5056594;28;20078;-79
2023/10/18 04:35:36;;;;;;;9.07;6.70;;;5.30;99.90;;;;;;5037495;28;20128;-79
2023/10/18 04:38:20;;;;;;;9.70;7.07;;;5.30;99.90;;;;;;5032337;28;20056;-79
2023/10/18 04:41:38;;;;;;;9.82;7.07;;;5.20;99.90;;;;;;5057140;28;20049;-79
2023/10/18 04:43:42;;;;;;;10.52;6.82;;;5.20;99.90;;;;;;5041526;28;20454;-79
2023/10/18 04:51:28;;;;;;;10.20;7.30;;;5.20;99.90;;;;;;5052047;28;20056;-79
2023/10/18 04:54:18;;;;;;;11.52;7.40;;;5.20;99.90;;;;;;5037665;28;20049;-78
2023/10/18 04:56:45;;;;;;;10.55;7.50;;;5.20;99.90;;;;;;5051521;28;20056;-79
2023/10/18 05:04:29;;;;;;;13.50;9.20;;;5.20;99.90;;;;;;5037040;28;20059;-78
2023/10/18 05:07:01;;;;;;;12.10;9.43;;;5.30;99.90;;;;;;5035058;28;20094;-78
2023/10/18 05:09:31;;;;;;;13.00;9.23;;;5.30;99.90;;;;;;5048983;28;20139;-79
2023/10/18 05:12:08;;;;;;;11.98;8.52;;;5.30;99.90;;;;;;5056581;28;20383;-78
2023/10/18 05:14:44;;;;;;;12.98;8.82;;;5.30;99.90;;;;;;5042770;28;20037;-78
2023/10/18 05:17:22;;;;;;;13.15;8.98;;;5.40;99.90;;;;;;5055633;28;20487;-81
2023/10/18 05:19:49;;;;;;;12.43;8.50;;;5.30;99.90;;;;;;5053951;28;20101;-78
2023/10/18 05:22:25;;;;;;;12.98;8.93;;;5.30;99.90;;;;;;5035896;28;20113;-77
2023/10/18 05:26:08;;;;;;;13.63;8.93;;;5.40;99.90;;;;;;5052913;28;20404;-80
2023/10/18 05:27:59;;;;;;;12.40;9.18;;;5.30;99.90;;;;;;5046409;28;20120;-80
2023/10/18 05:36:11;;;;;;;12.98;8.73;;;5.30;99.90;;;;;;5041953;28;20048;-78
2023/10/18 05:41:27;;;;;;;13.30;9.70;;;5.30;99.90;;;;;;5046499;28;20054;-78
2023/10/18 05:44:00;;;;;;;11.88;9.20;;;5.30;99.90;;;;;;5034728;28;20085;-78
2023/10/18 05:46:38;;;;;;;11.25;8.90;;;5.30;99.90;;;;;;5042014;28;20053;-78
2023/10/18 05:49:13;;;;;;;13.63;9.98;;;5.30;99.90;;;;;;5033298;28;20504;-78
2023/10/18 05:51:51;;;;;;;14.98;9.93;;;5.30;99.90;;;;;;5040363;28;20041;-78
2023/10/18 05:54:19;;;;;;;12.02;8.63;;;5.30;99.90;;;;;;5043610;28;20049;-76
2023/10/18 05:56:49;;;;;;;11.82;9.23;;;5.30;99.90;;;;;;5043984;28;20044;-77
2023/10/18 06:01:48;;;;;;;13.52;9.23;;;5.30;99.90;;;;;;5041213;28;20095;-78
2023/10/18 06:04:23;;;;;;;12.00;9.50;;;5.30;99.90;;;;;;5021025;28;20045;-77
2023/10/18 06:06:58;;;;;;;13.82;9.40;;;5.30;99.90;;;;;;5053327;28;20090;-79
2023/10/18 06:12:28;;;;;;;12.90;10.13;;;5.20;99.90;;;;;;5040730;28;20041;-82
2023/10/18 06:14:57;;;;;;;15.70;10.25;;;5.20;99.90;;;;;;5045031;28;20067;-81
2023/10/18 06:17:25;;;;;;;15.13;9.60;;;5.20;99.90;;;;;;5061043;28;20045;-82
2023/10/18 06:19:52;;;;;;;11.55;9.13;;;5.30;99.90;;;;;;5051816;28;20040;-81
2023/10/18 06:22:38;;;;;;;13.98;9.88;;;5.20;99.90;;;;;;5058934;28;20064;-81
2023/10/18 06:25:09;;;;;;;16.75;10.75;;;5.20;99.90;;;;;;5044366;28;20045;-81
2023/10/18 06:27:41;;;;;;;16.27;11.02;;;5.30;99.90;;;;;;5035017;28;20029;-81
2023/10/18 06:30:14;;;;;;;14.25;10.60;;;5.30;99.90;;;;;;5038853;28;20535;-81
2023/10/18 06:32:41;;;;;;;12.10;9.25;;;5.30;99.90;;;;;;5046600;28;20537;-81
2023/10/18 06:35:14;;;;;;;12.68;9.85;;;5.30;99.90;;;;;;5014281;28;20103;-81
2023/10/18 06:37:43;;;;;;;12.73;9.98;;;5.30;99.90;;;;;;5032978;28;20071;-81
2023/10/18 06:40:21;;;;;;;16.40;10.07;;;5.30;99.90;;;;;;5016659;28;20121;-80
2023/10/18 06:42:48;;;;;;;14.27;11.00;;;5.40;99.90;;;;;;5034833;28;20373;-81
2023/10/18 06:45:24;;;;;;;;;;;5.40;99.90;;;;;;5049799;28;20116;-80
2023/10/18 06:47:54;;;;;;;13.73;10.02;;;5.40;99.90;;;;;;5052917;28;20379;-81
2023/10/18 06:50:26;;;;;;;14.55;9.73;;;5.40;99.90;;;;;;5033948;28;20029;-80
2023/10/18 06:52:55;;;;;;;11.57;8.90;;;5.50;99.90;;;;;;5011296;28;20029;-81
2023/10/18 07:00:55;;;;;;;13.90;10.30;;;5.50;99.90;;;;;;5052796;28;20051;-80
2023/10/18 07:03:27;;;;;;;15.43;11.05;;;5.50;99.90;;;;;;5036397;28;20500;-80
2023/10/18 07:05:56;;;;;;;12.93;9.88;;;5.60;99.90;;;;;;5051609;28;20114;-80
2023/10/18 07:08:34;;;;;;;13.80;9.90;;;5.60;99.90;;;;;;5061681;28;20083;-81
2023/10/18 07:11:08;;;;;;;12.50;9.60;;;5.60;99.90;;;;;;5036398;28;20422;-81
2023/10/18 07:13:34;;;;;;;16.45;11.32;;;5.60;99.90;;;;;;5017890;28;20120;-81
2023/10/18 07:16:01;;;;;;;;;;;5.70;99.90;;;;;;5053000;28;20488;-81
2023/10/18 07:18:27;;;;;;;17.70;11.52;;;5.70;99.90;;;;;;5053034;28;20689;-80
2023/10/18 07:20:59;;;;;;;16.02;11.38;;;5.80;99.90;;;;;;5049975;28;20037;-81
2023/10/18 07:23:26;;;;;;;17.30;11.65;;;5.80;99.90;;;;;;5043116;28;20102;-80
2023/10/18 07:25:52;;;;;;;15.65;10.90;;;5.90;99.90;;;;;;5024634;28;20032;-81
2023/10/18 07:28:21;;;;;;;15.40;11.18;;;5.90;99.90;;;;;;5053064;28;20123;-81
2023/10/18 07:30:48;;;;;;;14.85;10.20;;;5.90;99.90;;;;;;5047194;28;20136;-81
2023/10/18 07:33:15;;;;;;;;;;;6.00;99.90;;;;;;5036882;28;20069;-81
2023/10/18 07:35:45;;;;;;;14.27;9.98;;;6.00;99.90;;;;;;5053167;28;19920;-81
2023/10/18 07:38:11;;;;;;;16.55;11.18;;;6.10;99.90;;;;;;5031853;28;20087;-81
2023/10/18 07:40:43;;;;;;;15.25;10.30;;;6.10;99.90;;;;;;5023807;28;20069;-81
2023/10/18 07:43:15;;;;;;;14.90;11.13;;;6.20;99.90;;;;;;5037100;28;20041;-81
2023/10/18 07:45:45;;;;;;;14.80;11.23;;;6.20;99.90;;;;;;5052501;28;20076;-81
2023/10/18 07:48:11;;;;;;;14.30;10.45;;;6.30;99.90;;;;;;5033813;28;20382;-81
2023/10/18 07:53:06;;;;;;;13.05;9.15;;;6.40;99.90;;;;;;5056922;28;20411;-85
2023/10/18 07:55:41;;;;;;;14.80;9.57;;;6.50;99.90;;;;;;5057154;28;20115;-85
2023/10/18 07:58:23;;;;;;;13.68;10.18;;;6.60;99.90;;;;;;5049973;28;20048;-85
2023/10/18 08:03:32;;;;;;;15.10;11.00;;;6.70;99.90;;;;;;5041896;28;20048;-85
2023/10/18 08:05:59;;;;;;;14.75;10.88;;;6.70;99.90;;;;;;5056350;28;20037;-85
2023/10/18 08:08:25;;;;;;;14.85;10.60;;;6.70;99.90;;;;;;5032451;28;20185;-85
2023/10/18 08:10:54;;;;;;;13.25;9.35;;;6.80;99.90;;;;;;5070319;28;20491;-85
2023/10/18 08:13:27;;;;;;;14.60;10.25;;;6.90;99.90;;;;;;5039557;28;20036;-84
2023/10/18 08:15:53;;;;;;;13.05;9.82;;;6.90;99.90;;;;;;5056339;28;20124;-85
2023/10/18 08:18:21;;;;;;;14.73;11.13;;;7.00;99.90;;;;;;5048609;28;20044;-84
2023/10/18 08:25:51;;;;;;;14.52;10.02;;;7.20;99.90;;;;;;5057545;28;20044;-83
2023/10/18 08:28:17;;;;;;;14.90;10.50;;;7.30;99.90;;;;;;5048490;28;20060;-83
2023/10/18 08:33:10;;;;;;;12.50;9.82;;;7.40;99.90;;;;;;5047848;28;20048;-83
2023/10/18 08:35:36;;;;;;;13.75;9.85;;;7.40;99.90;;;;;;5065251;28;20051;-84
2023/10/18 08:38:28;;;;;;;13.25;10.02;;;7.40;99.90;;;;;;5042789;28;20041;-83
2023/10/18 08:41:17;;;;;;;13.38;9.88;;;7.50;99.90;;;;;;5053008;28;20390;-83
2023/10/18 08:44:16;;;;;;;12.98;9.70;;;7.60;99.90;;;;;;5034152;28;20040;-83
2023/10/18 08:46:52;;;;;;;12.80;9.55;;;7.60;99.90;;;;;;5042963;28;20040;-83
2023/10/18 08:49:32;;;;;;;12.32;9.57;;;7.70;99.90;;;;;;5057866;28;20458;-83
2023/10/18 08:52:16;;;;;;;15.00;10.90;;;7.80;99.90;;;;;;5050243;28;20044;-83
2023/10/18 08:54:43;;;;;;;13.80;9.20;;;7.80;99.90;;;;;;5019432;28;20045;-83
2023/10/18 08:57:09;;;;;;;;;;;7.90;99.90;;;;;;5051944;28;20414;-83
2023/10/18 08:59:56;;;;;;;13.57;10.10;;;8.00;99.90;;;;;;5048854;28;19916;-84
2023/10/18 09:02:22;;;;;;;12.68;9.27;;;8.10;99.90;;;;;;5054738;28;20044;-82
2023/10/18 09:04:54;;;;;;;12.05;8.57;;;8.20;99.90;;;;;;5046305;28;20487;-85
2023/10/18 09:07:24;;;;;;;12.05;8.88;;;8.30;99.90;;;;;;5051752;28;20076;-85
2023/10/18 09:09:57;;;;;;;12.38;8.80;;;8.30;99.90;;;;;;5055509;28;20052;-85
2023/10/18 09:15:29;;;;;;;13.10;8.83;;;8.50;99.90;;;;;;5075071;28;20043;-85
2023/10/18 09:18:05;;;;;;;13.05;8.15;;;8.50;99.90;;;;;;5042256;28;20278;-84
2023/10/18 09:20:31;;;;;;;11.65;8.75;;;8.60;99.90;;;;;;5053102;28;20044;-86
2023/10/18 09:23:04;;;;;;;9.65;7.35;;;8.60;99.90;;;;;;5020079;28;20047;-86
2023/10/18 09:25:49;;;;;;;11.20;7.88;;;8.70;99.90;;;;;;5064721;28;20059;-85
2023/10/18 09:28:25;;;;;;;11.93;8.13;;;8.70;99.90;;;;;;5060583;28;20115;-84
2023/10/18 09:31:00;;;;;;;11.48;8.02;;;8.80;99.90;;;;;;5044636;28;20032;-84
2023/10/18 09:33:33;;;;;;;9.85;7.28;;;8.80;99.90;;;;;;5054685;28;20490;-86
2023/10/18 09:36:03;;;;;;;11.10;8.30;;;8.90;99.90;;;;;;5063994;28;20040;-85
2023/10/18 09:38:39;;;;;;;9.65;7.05;;;8.90;99.90;;;;;;5069225;28;20048;-83
2023/10/18 09:41:05;;;;;;;8.77;6.68;;;9.00;99.90;;;;;;5054890;28;20075;-84
2023/10/18 09:43:33;;;;;;;10.60;7.85;;;9.10;99.90;;;;;;5041479;28;20768;-84
2023/10/18 09:45:59;;;;;;;9.02;7.03;;;9.10;99.90;;;;;;5037878;28;20506;-87
2023/10/18 09:48:41;;;;;;;12.20;6.85;;;9.20;99.90;;;;;;5090144;28;20389;-83
2023/10/18 09:51:09;;;;;;;12.00;7.85;;;9.30;99.90;;;;;;5071875;28;20506;-84
2023/10/18 09:53:51;;;;;;;10.38;7.60;;;9.30;99.90;;;;;;5088669;28;20067;-84
2023/10/18 09:56:33;;;;;;;9.98;7.55;;;9.40;99.90;;;;;;5088654;28;20040;-85
2023/10/18 09:59:32;;;;;;;9.00;6.88;;;9.50;99.90;;;;;;5055736;28;20035;-84
2023/10/18 10:04:21;;;;;;;11.23;7.25;;;9.60;99.90;;;;;;5088822;28;20040;-83
2023/10/18 10:06:52;;;;;;;8.77;7.50;;;9.70;99.90;;;;;;5088614;28;20113;-83
2023/10/18 10:09:19;;;;;;;8.35;6.70;;;9.80;99.90;;;;;;5088394;28;20051;-84
2023/10/18 10:11:48;;;;;;;8.95;7.20;;;9.80;99.90;;;;;;5071809;28;20090;-84
2023/10/18 10:14:21;;;;;;;8.30;6.90;;;9.90;99.90;;;;;;5071668;28;20040;-83
2023/10/18 10:17:01;;;;;;;10.45;7.38;;;10.00;92.50;;;;;;5088227;28;20044;-84
2023/10/18 10:19:31;;;;;;;9.95;7.20;;;10.10;91.30;;;;;;5071099;28;20036;-84
2023/10/18 10:22:05;;;;;;;9.70;7.18;;;10.10;27.60;;;;;;5088221;28;20055;-83
2023/10/18 10:24:42;;;;;;;8.23;6.90;;;10.20;9.70;;;;;;5071522;28;20048;-83
2023/10/18 10:32:52;;;;;;;10.13;7.18;;;10.50;1.00;;;;;;5070115;28;20048;-83
2023/10/18 10:35:20;;;;;;;7.70;6.55;;;10.70;1.00;;;;;;5065951;28;20435;-83
2023/10/18 10:37:51;;;;;;;10.95;7.25;;;10.80;1.00;;;;;;5079437;28;20048;-84
2023/10/18 10:43:03;;;;;;;10.57;7.22;;;10.80;1.00;;;;;;5070264;28;20051;-79
2023/10/18 10:46:18;;;;;;;8.52;6.93;;;10.80;1.00;;;;;;5086135;28;20135;-78
2023/10/18 10:51:06;;;;;;;8.95;7.03;;;10.90;1.00;;;;;;5071225;28;20049;-80
2023/10/18 10:53:44;;;;;;;9.13;6.72;;;11.10;1.00;;;;;;5049220;28;20044;-82
2023/10/18 10:56:32;;;;;;;7.88;6.22;;;11.20;1.00;;;;;;5075599;28;20044;-82
2023/10/18 11:07:23;;;;;;;10.07;6.72;;;11.20;99.90;;;;;;5052152;28;20229;-80
2023/10/18 11:09:51;;;;;;;8.90;6.28;;;11.20;99.90;;;;;;5041165;28;20040;-79
2023/10/18 11:12:18;;;;;;;9.63;6.82;;;11.10;99.90;;;;;;5035283;28;20053;-78
2023/10/18 11:14:50;;;;;;;8.10;5.90;;;11.20;99.90;;;;;;5055111;28;20036;-79
2023/10/18 11:19:44;;;;;;;;;;;11.20;99.90;;;;;;5053014;28;20056;-80
2023/10/18 11:22:15;;;;;;;9.05;6.00;;;11.30;99.90;;;;;;5058110;28;19917;-79
2023/10/18 11:24:42;;;;;;;9.93;6.80;;;11.30;99.90;;;;;;5032367;28;20094;-78
2023/10/18 11:27:11;;;;;;;7.30;5.60;;;11.30;99.90;;;;;;5038913;28;20037;-79
2023/10/18 11:29:41;;;;;;;8.75;5.93;;;11.40;99.90;;;;;;5031970;28;20055;-80
2023/10/18 11:32:15;;;;;;;6.88;5.50;;;11.50;99.90;;;;;;5052766;28;20040;-79
2023/10/18 11:34:43;;;;;;;7.13;5.68;;;11.50;99.90;;;;;;5035744;28;20483;-79
2023/10/18 11:37:09;;;;;;;8.35;6.28;;;11.60;99.90;;;;;;5043596;28;20492;-79
2023/10/18 11:39:36;;;;;;;7.18;5.72;;;11.60;99.90;;;;;;5050817;28;20052;-78
2023/10/18 11:42:03;;;;;;;8.50;6.30;;;11.60;99.90;;;;;;5033574;28;20044;-79
2023/10/18 11:44:31;;;;;;;7.97;6.50;;;11.60;99.90;;;;;;5035234;28;20067;-79
2023/10/18 11:47:20;;;;;;;9.52;5.47;;;11.50;99.90;;;;;;5050682;28;20432;-79
2023/10/18 11:49:52;;;;;;;9.32;6.70;;;11.60;99.90;;;;;;5049585;28;20036;-80
2023/10/18 11:52:25;;;;;;;7.45;6.07;;;11.60;99.90;;;;;;5029042;28;20476;-79
2023/10/18 11:55:03;;;;;;;7.63;6.13;;;11.50;99.90;;;;;;5050332;28;20037;-80
2023/10/18 11:57:30;;;;;;;11.40;6.22;;;11.60;99.90;;;;;;5043036;28;20071;-79
2023/10/18 12:02:45;;;;;;;6.75;5.68;;;11.50;99.90;;;;;;5107238;28;20039;-79
2023/10/18 12:05:15;;;;;;;7.57;6.45;;;11.60;99.90;;;;;;5087517;27;20046;-79
2023/10/18 12:07:47;;;;;;;7.63;5.60;;;11.60;99.90;;;;;;5119782;27;20035;-80
2023/10/18 12:10:26;;;;;;;6.93;5.72;;;11.70;99.90;;;;;;5101090;28;20177;-79
2023/10/18 12:12:52;;;;;;;10.32;6.18;;;11.80;99.90;;;;;;5082505;28;20032;-79
2023/10/18 12:15:19;;;;;;;7.10;5.15;;;11.80;99.90;;;;;;5101829;27;20039;-80
2023/10/18 12:17:46;;;;;;;9.20;6.03;;;11.90;99.90;;;;;;5111982;27;20043;-80
2023/10/18 12:20:12;;;;;;;6.47;5.05;;;11.90;99.90;;;;;;5094872;27;20050;-79
2023/10/18 12:22:42;;;;;;;7.13;5.57;;;12.00;99.90;;;;;;5103824;27;20059;-84
2023/10/18 12:25:09;;;;;;;9.27;5.15;;;12.10;99.90;;;;;;5087493;27;20513;-85
2023/10/18 12:27:35;;;;;;;6.40;4.82;;;12.20;99.90;;;;;;5097552;27;20121;-83
2023/10/18 12:32:51;;;;;;;8.43;5.22;;;12.30;67.00;;;;;;5111409;27;20036;-81
2023/10/18 12:35:20;;;;;;;7.25;5.80;;;12.40;99.90;;;;;;5068519;28;20051;-82
2023/10/18 12:37:54;;;;;;;8.07;5.15;;;12.40;99.90;;;;;;5073281;27;20031;-80
2023/10/18 12:40:40;;;;;;;7.05;5.45;;;12.40;99.90;;;;;;5108716;28;20127;-81
2023/10/18 12:43:07;;;;;;;6.80;5.50;;;12.40;94.70;;;;;;5093624;27;20392;-83
2023/10/18 12:45:42;;;;;;;8.13;5.18;;;12.30;96.60;;;;;;5089647;27;20042;-84
2023/10/18 12:48:11;;;;;;;7.28;5.45;;;12.30;99.80;;;;;;5095255;28;20114;-86
2023/10/18 12:50:44;;;;;;;7.63;5.22;;;12.30;99.90;;;;;;5094153;27;20047;-85
2023/10/18 12:55:58;;;;;;;6.43;4.90;;;12.30;99.30;;;;;;5107611;27;20050;-85
2023/10/18 12:58:31;;;;;;;8.63;5.53;;;12.30;99.90;;;;;;5088895;28;20062;-84
2023/10/18 13:01:08;;;;;;;6.82;5.28;;;12.30;99.90;;;;;;5098307;27;20062;-84
2023/10/18 13:03:37;;;;;;;;;;;12.20;99.90;;;;;;5091430;27;20038;-85
2023/10/18 13:06:15;;;;;;;9.95;5.15;;;12.20;99.90;;;;;;5109456;27;19920;-85
2023/10/18 13:08:55;;;;;;;6.22;5.07;;;12.20;99.90;;;;;;5076554;27;20112;-81
2023/10/18 13:14:11;;;;;;;5.63;4.85;;;12.20;99.90;;;;;;5097076;28;20046;-85
2023/10/18 13:16:40;;;;;;;10.30;6.38;;;12.20;99.90;;;;;;5105397;27;20042;-85
2023/10/18 13:19:06;;;;;;;8.05;5.20;;;12.20;99.90;;;;;;5084216;27;20035;-84
2023/10/18 13:21:33;;;;;;;8.48;6.50;;;12.20;99.90;;;;;;5097329;27;20043;-84
2023/10/18 13:23:59;;;;;;;7.10;5.35;;;12.00;99.90;;;;;;5096360;28;20034;-82
2023/10/18 13:26:31;;;;;;;8.07;5.68;;;12.00;99.90;;;;;;5108809;27;20040;-83
2023/10/18 13:29:00;;;;;;;8.38;5.53;;;12.00;99.90;;;;;;5075724;27;20116;-83
2023/10/18 13:31:32;;;;;;;6.10;4.90;;;12.00;99.90;;;;;;5113004;27;20113;-82
2023/10/18 13:33:59;;;;;;;7.60;5.70;;;12.10;99.90;;;;;;5082476;28;20031;-82
2023/10/18 13:36:25;;;;;;;6.78;4.95;;;12.10;99.90;;;;;;5090946;27;20047;-82
2023/10/18 13:38:51;;;;;;;;;;;12.20;99.90;;;;;;5090727;28;20118;-83
2023/10/18 13:41:17;;;;;;;6.63;5.15;;;12.20;99.90;;;;;;5089386;28;20334;-83
2023/10/18 13:43:44;;;;;;;6.85;5.15;;;12.20;99.90;;;;;;5095621;28;20043;-83
2023/10/18 13:46:18;;;;;;;8.52;6.18;;;12.30;99.90;;;;;;5062433;28;20038;-83
2023/10/18 13:48:46;;;;;;;8.38;5.80;;;12.20;99.90;;;;;;5097576;28;20191;-84
2023/10/18 13:51:13;;;;;;;7.03;5.75;;;12.20;99.90;;;;;;5113597;28;20035;-82
2023/10/18 13:53:41;;;;;;;7.10;5.53;;;12.20;99.90;;;;;;5093572;28;20043;-84
2023/10/18 13:56:11;;;;;;;8.63;6.00;;;12.20;99.90;;;;;;5091656;28;20035;-84
2023/10/18 13:58:38;;;;;;;9.18;5.60;;;12.20;99.90;;;;;;5090965;28;20572;-83
2023/10/18 14:01:05;;;;;;;7.03;5.78;;;12.20;99.90;;;;;;5085321;28;20505;-83
2023/10/18 14:03:37;;;;;;;10.15;6.22;;;12.10;99.90;;;;;;5078531;28;20043;-83
2023/10/18 14:06:07;;;;;;;7.43;5.65;;;12.10;99.90;;;;;;5075960;28;20058;-84
2023/10/18 14:08:36;;;;;;;8.55;5.95;;;12.10;99.90;;;;;;5098017;28;20101;-83
2023/10/18 14:11:04;;;;;;;8.25;6.32;;;12.10;99.90;;;;;;5098553;28;20504;-81
2023/10/18 14:13:31;;;;;;;9.48;6.55;;;12.10;99.90;;;;;;5102800;28;20043;-82
2023/10/18 14:15:57;;;;;;;7.82;5.72;;;12.00;99.90;;;;;;5067420;28;20453;-82
2023/10/18 14:18:25;;;;;;;8.13;5.07;;;12.00;99.90;;;;;;5100994;28;20067;-82
2023/10/18 14:20:52;;;;;;;8.60;5.72;;;12.00;99.90;;;;;;5096862;28;20070;-83
2023/10/18 14:23:27;;;;;;;7.78;6.07;;;11.90;99.90;;;;;;5077052;28;20475;-83
2023/10/18 14:25:54;;;;;;;9.32;5.93;;;11.90;99.90;;;;;;5102885;28;20067;-83
2023/10/18 14:28:21;;;;;;;9.88;5.95;;;11.80;99.90;;;;;;5091186;28;20628;-82
2023/10/18 14:30:48;;;;;;;7.90;5.60;;;11.80;99.90;;;;;;5081758;28;20047;-79
2023/10/18 14:33:13;;;;;;;8.35;5.75;;;11.80;99.90;;;;;;5083803;28;20475;-79
2023/10/18 14:35:39;;;;;;;7.47;5.70;;;11.70;99.90;;;;;;5089515;28;20036;-79
2023/10/18 14:38:08;;;;;;;7.13;5.35;;;11.60;1.00;;;;;;5092306;27;20062;-81
2023/10/18 14:40:37;;;;;;;7.13;4.97;;;11.60;99.90;;;;;;5082548;27;20051;-82
2023/10/18 14:43:06;;;;;;;6.60;4.80;;;11.60;99.90;;;;;;5091185;27;20074;-82
2023/10/18 14:45:35;;;;;;;7.00;4.97;;;11.50;99.90;;;;;;5087990;27;20070;-81
2023/10/18 14:48:02;;;;;;;7.55;5.53;;;11.50;99.90;;;;;;5086255;27;20035;-81
2023/10/18 14:50:28;;;;;;;6.63;4.88;;;11.50;99.90;;;;;;5092805;27;20122;-83